LEPA Airport Information

Runway Information
Runway 06L Length 10728 ft width 148 ft
Elevation 15 ft Threshold 0 ft Heading 59
Runway 24R Length 10728 ft Width 148 ft
Elevation 8 ft Threshold 230 ft Heading 239
Runway 06R Length 9842 ft width 148 ft
Elevation 24 ft Threshold 1345 ft Heading 59
Runway 24L Length 9842 ft Width 148 ft
Elevation 8 ft Threshold 0 ft Heading 239
Airport Frequencies
Type APP Name APP Frequency 118.95 MHZ
Type ATIS Name ATIS Frequency 119.25 MHZ
Type CLD Name CLNC DEL Frequency 121.6 MHZ
Type GND Name GND Frequency 121.7 MHZ
Type OPS Name OPS Frequency 130.25 MHZ
Type TWR Name TWR Frequency 118.3 MHZ
Airport Navaids
Airport Weather Information & NOTAM
ADDS - METARS form results

(1010 UTC 18 August 2018)
 
METAR text: LEPA 181000Z 05010KT 020V080 9999 FEW025TCU 27/20 Q1019 NOSIG
Conditions at: LEPA (PALMA DE MALLORC, ES) observed 1000 UTC 18 August 2018
Temperature: 27.0°C (81°F)
Dewpoint: 20.0°C (68°F) [RH = 66%]
Pressure (altimeter): 30.09 inches Hg (1019.0 mb)
Winds: from the NE (50 degrees) at 12 MPH (10 knots; 5.2 m/s)
Visibility: 6 or more miles (10+ km)
Ceiling: at least 12,000 feet AGL
Clouds: few clouds at 2500 feet AGL
Weather: no significant weather observed at this time

METAR text: LEPA 180930Z 05009KT 9999 FEW025TCU 26/20 Q1019 NOSIG
Conditions at: LEPA (PALMA DE MALLORC, ES) observed 0930 UTC 18 August 2018
Temperature: 26.0°C (79°F)
Dewpoint: 20.0°C (68°F) [RH = 70%]
Pressure (altimeter): 30.09 inches Hg (1019.0 mb)
Winds: from the NE (50 degrees) at 10 MPH (9 knots; 4.7 m/s)
Visibility: 6 or more miles (10+ km)
Ceiling: at least 12,000 feet AGL
Clouds: few clouds at 2500 feet AGL
Weather: no significant weather observed at this time